MSC Barbara — HODU — position and weather

sailwx.info

Track history (hours):
 
Tides and Currents Weather Stations Pressure Air Temp Water Temp Dewpoint Dewpoint Depression Visibility Wind Speed Wind Dir Waves Ship Positions

MSC Barbara

Last reported at 2016-Apr-23 02:18 UTC. Time now 2016-May-06 09:16 UTC.
Position N 31°52' W 080°38'.
Warning: this ship's position is 13 days out of date.

Length 512 m; draft 10.8 m.

Type: Ship. MMSI: 353775000.

Date/timePositionNaut miles runAvg speedWind from/ knotsBaromVisibWave heightAir tempDewpointWater temp
2016-Apr-23 02:18N 31°52' W 080°38'7 8.9
2016-Apr-23 01:33N 31°58' W 080°43'1211.8
2016-Apr-23 00:33N 32°02' W 080°55'8 7.8
2016-Apr-22 23:33N 32°05' W 081°04'5 4.5
2016-Apr-22 22:33N 32°08' W 081°08'0 0.0
2016-Apr-22 21:33N 32°08' W 081°08'0 0.0
2016-Apr-22 20:33N 32°08' W 081°08'0 0.0
2016-Apr-22 19:33N 32°08' W 081°08'0 0.0
2016-Apr-22 18:33N 32°08' W 081°08'0 0.0
2016-Apr-22 17:33N 32°08' W 081°08'0 0.0
2016-Apr-22 16:33N 32°08' W 081°08'0 0.0
2016-Apr-22 15:33N 32°08' W 081°08'0 0.0
2016-Apr-22 14:33N 32°08' W 081°08'0 0.0
2016-Apr-22 13:33N 32°08' W 081°08'0 0.0
2016-Apr-22 12:33N 32°08' W 081°08'0 0.0
2016-Apr-22 11:33N 32°08' W 081°08'0 0.0
2016-Apr-22 10:34N 32°08' W 081°08'0 0.0
2016-Apr-22 09:33N 32°08' W 081°08'0 0.0
2016-Apr-22 08:33N 32°08' W 081°08'0 0.0
2016-Apr-22 07:33N 32°08' W 081°08'0 0.0
2016-Apr-22 06:34N 32°08' W 081°08'0 0.0
2016-Apr-22 05:33N 32°08' W 081°08'0 0.0
2016-Apr-22 04:33N 32°08' W 081°08'0 0.0
2016-Apr-22 03:34N 32°08' W 081°08'0 0.0
2016-Apr-22 02:34N 32°08' W 081°08'0 0.0
2016-Apr-22 01:34N 32°08' W 081°08'0 0.0
2016-Apr-22 00:34N 32°08' W 081°08'0 0.0
2016-Apr-21 23:33N 32°08' W 081°08'0 0.0
2016-Apr-21 22:33N 32°08' W 081°08'0 0.0
2016-Apr-21 21:33N 32°08' W 081°08'0 0.3
2016-Apr-21 20:33N 32°07' W 081°08'5 5.2
2016-Apr-21 19:34N 32°05' W 081°03'9 9.0
2016-Apr-21 18:33N 32°02' W 080°53'1212.4
2016-Apr-21 17:33N 31°57' W 080°39'10 9.7
2016-Apr-21 16:34N 31°57' W 080°28'1110.6
2016-Apr-21 15:33N 31°59' W 080°16'1110.7
2016-Apr-21 14:33N 32°00' W 080°03'35811.9
2016-Apr-20 08:28N 36°50' W 075°49'8 8.6
2016-Apr-20 07:33N 36°55' W 075°56'1413.3
2016-Apr-20 06:31N 37°06' W 076°07'5716.9
2016-Apr-20 03:07N 38°03' W 076°13'1418.7
2016-Apr-20 02:23N 38°16' W 076°17'3518.6
2016-Apr-20 00:31N 38°51' W 076°24'1616.3
2016-Apr-19 23:33N 39°06' W 076°24'1010.4
2016-Apr-19 22:33N 39°14' W 076°33'1 0.9
2016-Apr-19 21:32N 39°15' W 076°33'0 0.0
2016-Apr-19 20:28N 39°15' W 076°33'0 0.0
2016-Apr-19 19:28N 39°15' W 076°33'0 0.0
2016-Apr-19 18:33N 39°15' W 076°33'0 0.0
2016-Apr-19 17:33N 39°15' W 076°33'0 0.0
2016-Apr-19 16:32N 39°15' W 076°33'0 0.0
2016-Apr-19 15:32N 39°15' W 076°33'0 0.0
2016-Apr-19 14:32N 39°15' W 076°33'0 0.0
2016-Apr-19 13:31N 39°15' W 076°33'0 0.0
2016-Apr-19 12:31N 39°15' W 076°33'0 0.0
2016-Apr-19 11:33N 39°15' W 076°33'0 0.0
2016-Apr-19 10:33N 39°15' W 076°33'0 0.5
2016-Apr-19 09:34N 39°15' W 076°32'7 7.2
2016-Apr-19 08:33N 39°10' W 076°25'1313.5
2016-Apr-19 07:33N 38°56' W 076°23'1717.0
2016-Apr-19 06:34N 38°39' W 076°25'1817.3
2016-Apr-19 05:32N 38°22' W 076°20'1717.8
2016-Apr-19 04:33N 38°06' W 076°13'5816.6
2016-Apr-19 01:06N 37°08' W 076°09'916.9
2016-Apr-19 00:34N 37°01' W 076°02'1010.0
2016-Apr-18 23:33N 36°54' W 075°53'11710.6
2016-Apr-18 12:28N 38°30' W 074°29'2412.4
2016-Apr-18 10:33N 38°51' W 074°15'4912.2
2016-Apr-18 06:31N 39°38' W 073°55'1512.3
2016-Apr-18 05:20N 39°52' W 073°52'1212.5
2016-Apr-18 04:23N 40°04' W 073°51'2010.6
2016-Apr-18 02:28N 40°24' W 073°49'8 8.5
2016-Apr-18 01:33N 40°30' W 073°57'1211.7
2016-Apr-18 00:33N 40°39' W 074°07'3 3.0
2016-Apr-17 23:33N 40°41' W 074°09'0 0.0
2016-Apr-17 22:33N 40°41' W 074°09'0 0.0
2016-Apr-17 21:33N 40°41' W 074°09'0 0.0
2016-Apr-17 20:30N 40°41' W 074°09'0 0.0
2016-Apr-17 19:33N 40°41' W 074°09'0 0.0
2016-Apr-17 18:34N 40°41' W 074°09'0 0.0
2016-Apr-17 16:33N 40°41' W 074°09'0 0.0
2016-Apr-17 15:33N 40°41' W 074°09'0 0.0
2016-Apr-17 14:33N 40°41' W 074°09'0 0.0
2016-Apr-17 13:33N 40°41' W 074°09'0 0.0
2016-Apr-17 12:33N 40°41' W 074°09'0 0.0
2016-Apr-17 11:33N 40°41' W 074°09'0 0.0
2016-Apr-17 08:27N 40°41' W 074°09'0 0.0
2016-Apr-17 07:33N 40°41' W 074°09'0 0.0
2016-Apr-17 06:33N 40°41' W 074°09'0 0.0
2016-Apr-17 05:34N 40°41' W 074°09'0 0.0
2016-Apr-17 04:34N 40°41' W 074°09'0 0.0
2016-Apr-17 03:34N 40°41' W 074°09'0 0.0
2016-Apr-17 02:33N 40°41' W 074°09'0 0.0
2016-Apr-17 01:33N 40°41' W 074°09'2 1.9
2016-Apr-17 00:34N 40°39' W 074°09'5 5.4
2016-Apr-16 23:33N 40°36' W 074°03'1312.8
2016-Apr-16 22:33N 40°28' W 073°50'4513.9
2016-Apr-16 19:20N 39°43' W 073°42'1919.2
2016-Apr-16 18:19N 39°25' W 073°51'7118.4
2016-Apr-16 14:28N 38°23' W 074°33'1718.5
2016-Apr-16 13:33N 38°08' W 074°43'9313.3
2016-Apr-16 06:33N 36°56' W 075°58'18 8.8
2016-Apr-16 04:33N 36°54' W 076°20'1 1.4
2016-Apr-16 03:33N 36°52' W 076°21'0 0.0
2016-Apr-16 02:33N 36°52' W 076°21'0 0.0
2016-Apr-16 01:33N 36°52' W 076°21'0 0.0
2016-Apr-16 00:33N 36°52' W 076°21'0 0.0
2016-Apr-15 23:33N 36°52' W 076°21'0 0.0
2016-Apr-15 22:33N 36°52' W 076°21'0 0.0
2016-Apr-15 21:33N 36°52' W 076°21'0 0.0
2016-Apr-15 20:33N 36°52' W 076°21'0 0.0
2016-Apr-15 19:33N 36°52' W 076°21'0 0.0
2016-Apr-15 18:33N 36°52' W 076°21'0 0.0
2016-Apr-15 17:33N 36°52' W 076°21'0 0.0
2016-Apr-15 16:33N 36°52' W 076°21'1 1.1
2016-Apr-15 15:33N 36°53' W 076°20'8 7.4
2016-Apr-15 14:31N 37°00' W 076°16'1414.3
2016-Apr-15 13:33N 36°57' W 075°60'7 7.2
2016-Apr-15 12:33N 36°53' W 075°52'6 6.5
2016-Apr-15 11:33N 36°49' W 075°45'  
2016-Apr-13 04:33N 27°02' W 079°51'2121.3
2016-Apr-13 03:33N 26°41' W 079°52'2322.8
2016-Apr-13 02:34N 26°18' W 079°55'  
Track history (hours):
 
Tides and Currents Weather Stations Pressure Air Temp Water Temp Dewpoint Dewpoint Depression Visibility Wind Speed Wind Dir Waves Ship Positions

MSC Barbara

Last reported at 2016-Apr-23 02:18 UTC. Time now 2016-May-06 09:16 UTC.
Position N 31°52' W 080°38'.
Warning: this ship's position is 13 days out of date.

Length 512 m; draft 10.8 m.

Type: Ship. MMSI: 353775000.

Date/timePositionNaut miles runAvg speedWind from/ knotsBaromVisibWave heightAir tempDewpointWater temp
2016-Apr-23 02:18N 31°52' W 080°38'7 8.9
2016-Apr-23 01:33N 31°58' W 080°43'1211.8
2016-Apr-23 00:33N 32°02' W 080°55'8 7.8
2016-Apr-22 23:33N 32°05' W 081°04'5 4.5
2016-Apr-22 22:33N 32°08' W 081°08'0 0.0
2016-Apr-22 21:33N 32°08' W 081°08'0 0.0
2016-Apr-22 20:33N 32°08' W 081°08'0 0.0
2016-Apr-22 19:33N 32°08' W 081°08'0 0.0
2016-Apr-22 18:33N 32°08' W 081°08'0 0.0
2016-Apr-22 17:33N 32°08' W 081°08'0 0.0
2016-Apr-22 16:33N 32°08' W 081°08'0 0.0
2016-Apr-22 15:33N 32°08' W 081°08'0 0.0
2016-Apr-22 14:33N 32°08' W 081°08'0 0.0
2016-Apr-22 13:33N 32°08' W 081°08'0 0.0
2016-Apr-22 12:33N 32°08' W 081°08'0 0.0
2016-Apr-22 11:33N 32°08' W 081°08'0 0.0
2016-Apr-22 10:34N 32°08' W 081°08'0 0.0
2016-Apr-22 09:33N 32°08' W 081°08'0 0.0
2016-Apr-22 08:33N 32°08' W 081°08'0 0.0
2016-Apr-22 07:33N 32°08' W 081°08'0 0.0
2016-Apr-22 06:34N 32°08' W 081°08'0 0.0
2016-Apr-22 05:33N 32°08' W 081°08'0 0.0
2016-Apr-22 04:33N 32°08' W 081°08'0 0.0
2016-Apr-22 03:34N 32°08' W 081°08'0 0.0
2016-Apr-22 02:34N 32°08' W 081°08'0 0.0
2016-Apr-22 01:34N 32°08' W 081°08'0 0.0
2016-Apr-22 00:34N 32°08' W 081°08'0 0.0
2016-Apr-21 23:33N 32°08' W 081°08'0 0.0
2016-Apr-21 22:33N 32°08' W 081°08'0 0.0
2016-Apr-21 21:33N 32°08' W 081°08'0 0.3
2016-Apr-21 20:33N 32°07' W 081°08'5 5.2
2016-Apr-21 19:34N 32°05' W 081°03'9 9.0
2016-Apr-21 18:33N 32°02' W 080°53'1212.4
2016-Apr-21 17:33N 31°57' W 080°39'10 9.7
2016-Apr-21 16:34N 31°57' W 080°28'1110.6
2016-Apr-21 15:33N 31°59' W 080°16'1110.7
2016-Apr-21 14:33N 32°00' W 080°03'35811.9
2016-Apr-20 08:28N 36°50' W 075°49'8 8.6
2016-Apr-20 07:33N 36°55' W 075°56'1413.3
2016-Apr-20 06:31N 37°06' W 076°07'5716.9
2016-Apr-20 03:07N 38°03' W 076°13'1418.7
2016-Apr-20 02:23N 38°16' W 076°17'3518.6
2016-Apr-20 00:31N 38°51' W 076°24'1616.3
2016-Apr-19 23:33N 39°06' W 076°24'1010.4
2016-Apr-19 22:33N 39°14' W 076°33'1 0.9
2016-Apr-19 21:32N 39°15' W 076°33'0 0.0
2016-Apr-19 20:28N 39°15' W 076°33'0 0.0
2016-Apr-19 19:28N 39°15' W 076°33'0 0.0
2016-Apr-19 18:33N 39°15' W 076°33'0 0.0
2016-Apr-19 17:33N 39°15' W 076°33'0 0.0
2016-Apr-19 16:32N 39°15' W 076°33'0 0.0
2016-Apr-19 15:32N 39°15' W 076°33'0 0.0
2016-Apr-19 14:32N 39°15' W 076°33'0 0.0
2016-Apr-19 13:31N 39°15' W 076°33'0 0.0
2016-Apr-19 12:31N 39°15' W 076°33'0 0.0
2016-Apr-19 11:33N 39°15' W 076°33'0 0.0
2016-Apr-19 10:33N 39°15' W 076°33'0 0.5
2016-Apr-19 09:34N 39°15' W 076°32'7 7.2
2016-Apr-19 08:33N 39°10' W 076°25'1313.5
2016-Apr-19 07:33N 38°56' W 076°23'1717.0
2016-Apr-19 06:34N 38°39' W 076°25'1817.3
2016-Apr-19 05:32N 38°22' W 076°20'1717.8
2016-Apr-19 04:33N 38°06' W 076°13'5816.6
2016-Apr-19 01:06N 37°08' W 076°09'916.9
2016-Apr-19 00:34N 37°01' W 076°02'1010.0
2016-Apr-18 23:33N 36°54' W 075°53'11710.6
2016-Apr-18 12:28N 38°30' W 074°29'2412.4
2016-Apr-18 10:33N 38°51' W 074°15'4912.2
2016-Apr-18 06:31N 39°38' W 073°55'1512.3
2016-Apr-18 05:20N 39°52' W 073°52'1212.5
2016-Apr-18 04:23N 40°04' W 073°51'2010.6
2016-Apr-18 02:28N 40°24' W 073°49'8 8.5
2016-Apr-18 01:33N 40°30' W 073°57'1211.7
2016-Apr-18 00:33N 40°39' W 074°07'3 3.0
2016-Apr-17 23:33N 40°41' W 074°09'0 0.0
2016-Apr-17 22:33N 40°41' W 074°09'0 0.0
2016-Apr-17 21:33N 40°41' W 074°09'0 0.0
2016-Apr-17 20:30N 40°41' W 074°09'0 0.0
2016-Apr-17 19:33N 40°41' W 074°09'0 0.0
2016-Apr-17 18:34N 40°41' W 074°09'0 0.0
2016-Apr-17 16:33N 40°41' W 074°09'0 0.0
2016-Apr-17 15:33N 40°41' W 074°09'0 0.0
2016-Apr-17 14:33N 40°41' W 074°09'0 0.0
2016-Apr-17 13:33N 40°41' W 074°09'0 0.0
2016-Apr-17 12:33N 40°41' W 074°09'0 0.0
2016-Apr-17 11:33N 40°41' W 074°09'0 0.0
2016-Apr-17 08:27N 40°41' W 074°09'0 0.0
2016-Apr-17 07:33N 40°41' W 074°09'0 0.0
2016-Apr-17 06:33N 40°41' W 074°09'0 0.0
2016-Apr-17 05:34N 40°41' W 074°09'0 0.0
2016-Apr-17 04:34N 40°41' W 074°09'0 0.0
2016-Apr-17 03:34N 40°41' W 074°09'0 0.0
2016-Apr-17 02:33N 40°41' W 074°09'0 0.0
2016-Apr-17 01:33N 40°41' W 074°09'2 1.9
2016-Apr-17 00:34N 40°39' W 074°09'5 5.4
2016-Apr-16 23:33N 40°36' W 074°03'1312.8
2016-Apr-16 22:33N 40°28' W 073°50'4513.9
2016-Apr-16 19:20N 39°43' W 073°42'1919.2
2016-Apr-16 18:19N 39°25' W 073°51'7118.4
2016-Apr-16 14:28N 38°23' W 074°33'1718.5
2016-Apr-16 13:33N 38°08' W 074°43'9313.3
2016-Apr-16 06:33N 36°56' W 075°58'18 8.8
2016-Apr-16 04:33N 36°54' W 076°20'1 1.4
2016-Apr-16 03:33N 36°52' W 076°21'0 0.0
2016-Apr-16 02:33N 36°52' W 076°21'0 0.0
2016-Apr-16 01:33N 36°52' W 076°21'0 0.0
2016-Apr-16 00:33N 36°52' W 076°21'0 0.0
2016-Apr-15 23:33N 36°52' W 076°21'0 0.0
2016-Apr-15 22:33N 36°52' W 076°21'0 0.0
2016-Apr-15 21:33N 36°52' W 076°21'0 0.0
2016-Apr-15 20:33N 36°52' W 076°21'0 0.0
2016-Apr-15 19:33N 36°52' W 076°21'0 0.0
2016-Apr-15 18:33N 36°52' W 076°21'0 0.0
2016-Apr-15 17:33N 36°52' W 076°21'0 0.0
2016-Apr-15 16:33N 36°52' W 076°21'1 1.1
2016-Apr-15 15:33N 36°53' W 076°20'8 7.4
2016-Apr-15 14:31N 37°00' W 076°16'1414.3
2016-Apr-15 13:33N 36°57' W 075°60'7 7.2
2016-Apr-15 12:33N 36°53' W 075°52'6 6.5
2016-Apr-15 11:33N 36°49' W 075°45'  
2016-Apr-13 04:33N 27°02' W 079°51'2121.3
2016-Apr-13 03:33N 26°41' W 079°52'2322.8
2016-Apr-13 02:34N 26°18' W 079°55'  

Dump ship's entire track history